Time;durP1;ratioP1;P1;durP2;ratioP2;P2;SDS_P1;SDS_P2;PMS_P1;PMS_P2;Temp;Humidity;BMP_temperature;BMP_pressure;BME280_temperature;BME280_humidity;BME280_pressure;Samples;Min_cycle;Max_cycle;Signal;HPM_P1;HPM_P2
2024/04/16 00:00:25;;;;;;;;;;;22.90;38.00;;;;;;3051962;19;4778;-23
2024/04/16 00:01:25;;;;;;;;;;;22.90;38.00;;;;;;3030033;19;4575;-23
2024/04/16 00:02:26;;;;;;;;;;;22.80;37.90;;;;;;3051659;19;4730;-24
2024/04/16 00:03:26;;;;;;;;;;;22.90;38.00;;;;;;3051087;19;4678;-24
2024/04/16 00:04:27;;;;;;;;;;;22.80;38.00;;;;;;3030791;19;4534;-25
2024/04/16 00:05:28;;;;;;;;;;;22.80;38.00;;;;;;3049476;19;4731;-23
2024/04/16 00:06:28;;;;;;;;;;;22.90;38.10;;;;;;3030243;19;4708;-24
2024/04/16 00:07:29;;;;;;;;;;;22.80;38.00;;;;;;3052272;19;4864;-24
2024/04/16 00:08:30;;;;;;;;;;;22.80;38.00;;;;;;3051441;19;4714;-23
2024/04/16 00:09:30;;;;;;;;;;;22.80;38.00;;;;;;3030572;19;4594;-25
2024/04/16 00:10:31;;;;;;;;;;;22.80;38.70;;;;;;3051498;19;4714;-25
2024/04/16 00:11:31;;;;;;;;;;;22.80;37.90;;;;;;3051857;19;4681;-24
2024/04/16 00:12:32;;;;;;;;;;;22.80;38.20;;;;;;3029907;19;4622;-23
2024/04/16 00:13:33;;;;;;;;;;;22.80;38.00;;;;;;3050907;19;4704;-23
2024/04/16 00:14:33;;;;;;;;;;;22.80;38.10;;;;;;3029279;19;4689;-24
2024/04/16 00:15:34;;;;;;;;;;;22.80;38.10;;;;;;3051990;19;4698;-26
2024/04/16 00:16:35;;;;;;;;;;;22.80;38.00;;;;;;3052595;19;4662;-24
2024/04/16 00:17:35;;;;;;;;;;;22.80;38.00;;;;;;3030515;19;4564;-24
2024/04/16 00:18:36;;;;;;;;;;;22.80;38.00;;;;;;3051232;19;4651;-24
2024/04/16 00:19:37;;;;;;;;;;;22.80;38.00;;;;;;3029167;19;4661;-24
2024/04/16 00:20:37;;;;;;;;;;;22.80;38.10;;;;;;3051858;19;4845;-24
2024/04/16 00:21:38;;;;;;;;;;;22.80;38.10;;;;;;3050215;19;4776;-25
2024/04/16 00:22:38;;;;;;;;;;;22.70;38.10;;;;;;3029839;19;4697;-24
2024/04/16 00:23:39;;;;;;;;;;;22.70;38.10;;;;;;3049892;19;4685;-24
2024/04/16 00:24:40;;;;;;;;;;;22.80;38.20;;;;;;3051298;19;4719;-25
2024/04/16 00:25:40;;;;;;;;;;;22.70;38.10;;;;;;3030716;19;4610;-23
2024/04/16 00:26:41;;;;;;;;;;;22.70;38.10;;;;;;3052434;19;4749;-23
2024/04/16 00:27:42;;;;;;;;;;;22.70;38.10;;;;;;3030552;19;4667;-25
2024/04/16 00:28:43;;;;;;;;;;;22.70;38.10;;;;;;3050851;19;4695;-25
2024/04/16 00:29:43;;;;;;;;;;;22.70;38.10;;;;;;3051402;19;4692;-25
2024/04/16 00:30:44;;;;;;;;;;;22.70;38.20;;;;;;3029275;19;4822;-26
2024/04/16 00:31:45;;;;;;;;;;;22.70;38.30;;;;;;3051612;19;4663;-23
2024/04/16 00:32:45;;;;;;;;;;;22.70;38.10;;;;;;3052395;19;4722;-23
2024/04/16 00:33:47;;;;;;;;;;;23.40;38.70;;;;;;3028914;19;4597;-25
2024/04/16 00:34:47;;;;;;;;;;;22.70;38.20;;;;;;3050889;19;4652;-23
2024/04/16 00:35:48;;;;;;;;;;;22.70;38.30;;;;;;3030564;19;4664;-26
2024/04/16 00:36:49;;;;;;;;;;;22.70;38.30;;;;;;3052162;19;4720;-25
2024/04/16 00:37:49;;;;;;;;;;;22.70;38.40;;;;;;3051730;19;4663;-24
2024/04/16 00:38:50;;;;;;;;;;;22.70;38.40;;;;;;3029627;19;4662;-23
2024/04/16 00:39:50;;;;;;;;;;;22.70;38.40;;;;;;3050490;19;5321;-23
2024/04/16 00:40:51;;;;;;;;;;;22.70;38.50;;;;;;3051286;19;4901;-24
2024/04/16 00:41:52;;;;;;;;;;;22.70;38.50;;;;;;3029592;19;4652;-26
2024/04/16 00:42:52;;;;;;;;;;;22.70;38.50;;;;;;3051102;19;4714;-27
2024/04/16 00:43:53;;;;;;;;;;;22.60;38.30;;;;;;3029792;19;4665;-32
2024/04/16 00:44:53;;;;;;;;;;;22.60;38.40;;;;;;3051622;19;4681;-24
2024/04/16 00:45:54;;;;;;;;;;;22.60;38.40;;;;;;3051465;19;4664;-23
2024/04/16 00:46:55;;;;;;;;;;;22.60;38.50;;;;;;3030209;19;4649;-25
2024/04/16 00:47:56;;;;;;;;;;;22.60;38.40;;;;;;3051894;19;4641;-27
2024/04/16 00:48:56;;;;;;;;;;;22.60;38.50;;;;;;3034950;19;4859;-25
2024/04/16 00:49:57;;;;;;;;;;;22.60;38.60;;;;;;3054044;19;4628;-24
2024/04/16 00:50:58;;;;;;;;;;;22.60;38.50;;;;;;3053023;19;4649;-23
2024/04/16 00:51:58;;;;;;;;;;;22.60;38.50;;;;;;3032002;19;4668;-24
2024/04/16 00:52:59;;;;;;;;;;;22.60;38.50;;;;;;3054338;19;4722;-23
2024/04/16 00:53:59;;;;;;;;;;;22.40;38.50;;;;;;3053290;19;4642;-24
2024/04/16 00:55:03;;;;;;;;;;;22.60;38.60;;;;;;3031968;19;4674;-25
2024/04/16 00:56:04;;;;;;;;;;;22.60;38.60;;;;;;3053453;19;4655;-25
2024/04/16 00:57:05;;;;;;;;;;;22.60;38.60;;;;;;3031721;19;4634;-23
2024/04/16 00:58:06;;;;;;;;;;;22.60;38.60;;;;;;3053621;19;10688;-25
2024/04/16 00:59:07;;;;;;;;;;;22.60;38.60;;;;;;3054313;19;4693;-24
2024/04/16 01:00:08;;;;;;;;;;;22.60;38.60;;;;;;3032028;19;4107;-25
2024/04/16 01:01:08;;;;;;;;;;;22.50;38.70;;;;;;3054196;19;5211;-24
2024/04/16 01:02:09;;;;;;;;;;;22.50;38.60;;;;;;3053913;19;4693;-23
2024/04/16 01:03:10;;;;;;;;;;;22.50;38.60;;;;;;3031947;19;4580;-24
2024/04/16 01:04:10;;;;;;;;;;;22.50;38.40;;;;;;3054108;19;4757;-24
2024/04/16 01:05:11;;;;;;;;;;;22.50;38.70;;;;;;3032685;19;4617;-24
2024/04/16 01:06:12;;;;;;;;;;;22.50;38.60;;;;;;3054645;19;4649;-24
2024/04/16 01:07:12;;;;;;;;;;;22.50;38.70;;;;;;3053886;19;4745;-25
2024/04/16 01:08:13;;;;;;;;;;;22.50;38.60;;;;;;3033019;19;4247;-23
2024/04/16 01:09:14;;;;;;;;;;;22.50;38.50;;;;;;3053964;19;4630;-24
2024/04/16 01:10:14;;;;;;;;;;;22.50;38.60;;;;;;3054511;19;4660;-24
2024/04/16 01:11:28;;;;;;;;;;;22.50;38.60;;;;;;3032048;19;20877;-24
2024/04/16 01:12:28;;;;;;;;;;;22.50;38.60;;;;;;3054104;19;4691;-23
2024/04/16 01:13:29;;;;;;;;;;;22.50;38.60;;;;;;3032608;19;4647;-25
2024/04/16 01:14:30;;;;;;;;;;;22.50;38.70;;;;;;3053577;19;5180;-24
2024/04/16 01:15:31;;;;;;;;;;;22.40;38.60;;;;;;3053824;19;4688;-26
2024/04/16 01:16:31;;;;;;;;;;;22.50;38.70;;;;;;3032501;19;4666;-25
2024/04/16 01:17:32;;;;;;;;;;;22.40;38.60;;;;;;3054043;19;4653;-24
2024/04/16 01:18:33;;;;;;;;;;;22.40;38.70;;;;;;3032972;19;4721;-23
2024/04/16 01:19:33;;;;;;;;;;;22.40;38.70;;;;;;3054191;19;4844;-24
2024/04/16 01:20:34;;;;;;;;;;;22.40;38.60;;;;;;3053593;19;4762;-23
2024/04/16 01:21:35;;;;;;;;;;;22.40;38.60;;;;;;3030352;19;4672;-24
2024/04/16 01:22:35;;;;;;;;;;;22.40;39.00;;;;;;3054259;19;4693;-25
2024/04/16 01:23:36;;;;;;;;;;;22.40;38.60;;;;;;3039668;19;4660;-26
2024/04/16 01:24:37;;;;;;;;;;;22.40;38.60;;;;;;3053644;19;4570;-26
2024/04/16 01:25:37;;;;;;;;;;;22.40;38.60;;;;;;3053847;19;4658;-24
2024/04/16 01:26:38;;;;;;;;;;;22.40;38.60;;;;;;3032816;19;4698;-24
2024/04/16 01:27:38;;;;;;;;;;;22.40;38.70;;;;;;3052021;19;4727;-28
2024/04/16 01:28:39;;;;;;;;;;;22.40;38.70;;;;;;3051939;19;4730;-23
2024/04/16 01:29:40;;;;;;;;;;;22.40;38.60;;;;;;3031917;19;4479;-26
2024/04/16 01:30:40;;;;;;;;;;;22.30;38.60;;;;;;3053115;19;4875;-25
2024/04/16 01:31:41;;;;;;;;;;;22.40;38.70;;;;;;3031867;19;4768;-25
2024/04/16 01:32:42;;;;;;;;;;;22.40;38.70;;;;;;3053946;19;4622;-26
2024/04/16 01:33:42;;;;;;;;;;;22.30;38.60;;;;;;3052920;19;4663;-26
2024/04/16 01:34:43;;;;;;;;;;;22.30;38.60;;;;;;3032138;19;4761;-25
2024/04/16 01:35:43;;;;;;;;;;;22.30;38.70;;;;;;3053832;19;4742;-24
2024/04/16 01:36:44;;;;;;;;;;;22.30;38.60;;;;;;3053607;19;4702;-23
2024/04/16 01:37:45;;;;;;;;;;;22.30;38.70;;;;;;3032715;19;4481;-25
2024/04/16 01:38:45;;;;;;;;;;;22.30;38.70;;;;;;3053520;19;4749;-25
2024/04/16 01:39:46;;;;;;;;;;;22.40;38.70;;;;;;3033086;19;4689;-25
2024/04/16 01:40:47;;;;;;;;;;;22.40;38.80;;;;;;3053033;19;4747;-24
2024/04/16 01:41:47;;;;;;;;;;;22.40;38.70;;;;;;3054606;19;4623;-24
2024/04/16 01:42:48;;;;;;;;;;;22.30;38.70;;;;;;3030615;19;4655;-25
2024/04/16 01:43:49;;;;;;;;;;;22.30;38.70;;;;;;3051262;19;4671;-25
2024/04/16 01:44:51;;;;;;;;;;;22.30;38.70;;;;;;3053497;19;4652;-27
2024/04/16 01:45:51;;;;;;;;;;;22.30;38.70;;;;;;3031132;19;4589;-24
2024/04/16 01:46:52;;;;;;;;;;;22.30;38.70;;;;;;3053573;19;4629;-25
2024/04/16 01:47:53;;;;;;;;;;;22.30;38.70;;;;;;3033525;19;4805;-24
2024/04/16 01:48:54;;;;;;;;;;;22.30;38.80;;;;;;3052526;19;4826;-25
2024/04/16 01:49:55;;;;;;;;;;;22.30;38.70;;;;;;3054083;19;4612;-23
2024/04/16 01:50:57;;;;;;;;;;;22.30;38.80;;;;;;3032166;19;4693;-24
2024/04/16 01:51:59;;;;;;;;;;;22.30;38.80;;;;;;3052227;19;4627;-24
2024/04/16 01:53:01;;;;;;;;;;;22.20;38.70;;;;;;3031792;19;4693;-23
2024/04/16 01:54:01;;;;;;;;;;;22.30;38.80;;;;;;3052784;19;4597;-24
2024/04/16 01:55:02;;;;;;;;;;;22.30;38.80;;;;;;3053318;19;4658;-26
2024/04/16 01:56:03;;;;;;;;;;;22.30;38.70;;;;;;3032675;19;4646;-23
2024/04/16 01:57:05;;;;;;;;;;;22.30;38.80;;;;;;3053845;19;4616;-26
2024/04/16 01:58:06;;;;;;;;;;;22.30;38.80;;;;;;3054067;19;4647;-25
2024/04/16 01:59:08;;;;;;;;;;;22.30;38.80;;;;;;3029863;19;4257;-28
2024/04/16 02:00:09;;;;;;;;;;;22.20;38.80;;;;;;3049994;19;4598;-25
2024/04/16 02:01:10;;;;;;;;;;;22.20;38.80;;;;;;3029421;19;4605;-24
2024/04/16 02:02:11;;;;;;;;;;;22.20;38.90;;;;;;3053500;19;4698;-25
2024/04/16 02:03:12;;;;;;;;;;;22.20;38.80;;;;;;3053012;19;4718;-25
2024/04/16 02:04:12;;;;;;;;;;;22.20;38.70;;;;;;3031800;19;4609;-23
2024/04/16 02:05:13;;;;;;;;;;;22.20;38.70;;;;;;3053920;19;4645;-31
2024/04/16 02:06:14;;;;;;;;;;;22.20;38.70;;;;;;3053512;19;4701;-36
2024/04/16 02:07:14;;;;;;;;;;;22.20;38.80;;;;;;3031253;19;4581;-30
2024/04/16 02:08:15;;;;;;;;;;;22.20;38.70;;;;;;3053635;19;4840;-31
2024/04/16 02:09:16;;;;;;;;;;;22.20;38.80;;;;;;3031240;19;4502;-30
2024/04/16 02:10:16;;;;;;;;;;;22.20;38.90;;;;;;3053423;19;4648;-33
2024/04/16 02:11:17;;;;;;;;;;;22.20;38.80;;;;;;3053591;19;4689;-33
2024/04/16 02:12:17;;;;;;;;;;;22.20;38.80;;;;;;3029797;19;4847;-32
2024/04/16 02:13:18;;;;;;;;;;;22.20;38.80;;;;;;3052538;19;4702;-33
2024/04/16 02:14:19;;;;;;;;;;;22.20;38.80;;;;;;3030982;19;4788;-33
2024/04/16 02:15:19;;;;;;;;;;;22.20;38.80;;;;;;3053521;19;4627;-24
2024/04/16 02:16:20;;;;;;;;;;;22.20;38.80;;;;;;3052659;19;4677;-24
2024/04/16 02:17:23;;;;;;;;;;;22.10;38.80;;;;;;3030739;19;4562;-24
2024/04/16 02:18:24;;;;;;;;;;;22.10;38.80;;;;;;3052744;19;4733;-24
2024/04/16 02:19:24;;;;;;;;;;;22.10;38.80;;;;;;3053700;19;4847;-25
2024/04/16 02:20:25;;;;;;;;;;;22.20;38.80;;;;;;3030608;19;4568;-23
2024/04/16 02:21:26;;;;;;;;;;;22.10;38.70;;;;;;3051661;19;4620;-24
2024/04/16 02:22:26;;;;;;;;;;;22.10;38.80;;;;;;3032016;19;4670;-24
2024/04/16 02:23:27;;;;;;;;;;;22.10;38.70;;;;;;3053309;19;4784;-25
2024/04/16 02:24:27;;;;;;;;;;;22.10;38.80;;;;;;3053735;19;4787;-23
2024/04/16 02:25:28;;;;;;;;;;;22.10;38.70;;;;;;3032307;19;4635;-28
2024/04/16 02:26:29;;;;;;;;;;;22.10;38.70;;;;;;3053256;19;4707;-25
2024/04/16 02:27:29;;;;;;;;;;;22.10;38.70;;;;;;3053802;19;4613;-26
2024/04/16 02:28:30;;;;;;;;;;;22.10;38.70;;;;;;3031296;19;4684;-24
2024/04/16 02:29:31;;;;;;;;;;;24.90;40.30;;;;;;3052701;19;4803;-23
2024/04/16 02:30:33;;;;;;;;;;;22.10;38.70;;;;;;3030933;19;4645;-24
2024/04/16 02:31:34;;;;;;;;;;;22.10;38.80;;;;;;3053275;19;4727;-25
2024/04/16 02:32:34;;;;;;;;;;;22.10;38.70;;;;;;3052876;19;4644;-23
2024/04/16 02:33:35;;;;;;;;;;;22.10;38.70;;;;;;3031217;19;4595;-24
2024/04/16 02:34:35;;;;;;;;;;;22.10;38.70;;;;;;3052454;19;4656;-23
2024/04/16 02:35:36;;;;;;;;;;;22.10;38.70;;;;;;3037010;19;4668;-31
2024/04/16 02:36:37;;;;;;;;;;;22.10;38.70;;;;;;3052304;19;4713;-31
2024/04/16 02:37:37;;;;;;;;;;;22.10;38.50;;;;;;3053448;19;4681;-32
2024/04/16 02:38:38;;;;;;;;;;;22.10;38.30;;;;;;3031845;19;4681;-30
2024/04/16 02:39:38;;;;;;;;;;;23.90;39.20;;;;;;3052612;19;4859;-31
2024/04/16 02:40:39;;;;;;;;;;;22.30;38.20;;;;;;3051842;19;4825;-35
2024/04/16 02:41:40;;;;;;;;;;;22.20;38.00;;;;;;3029007;19;4640;-31
2024/04/16 02:42:40;;;;;;;;;;;22.30;38.00;;;;;;3050957;19;4701;-30
2024/04/16 02:43:41;;;;;;;;;;;22.30;38.00;;;;;;3029876;19;4899;-29
2024/04/16 02:44:42;;;;;;;;;;;22.30;37.90;;;;;;3052163;19;4650;-32
2024/04/16 02:45:42;;;;;;;;;;;22.30;38.00;;;;;;3052356;19;4593;-33
2024/04/16 02:46:43;;;;;;;;;;;22.40;37.80;;;;;;3030309;19;4698;-33
2024/04/16 02:47:43;;;;;;;;;;;22.30;37.60;;;;;;3052958;19;4728;-32
2024/04/16 02:48:44;;;;;;;;;;;22.40;37.50;;;;;;3052407;19;4672;-33
2024/04/16 02:49:45;;;;;;;;;;;22.50;37.50;;;;;;3029532;19;4544;-33
2024/04/16 02:50:51;;;;;;;;;;;22.50;37.40;;;;;;3052833;19;4721;-33
2024/04/16 02:51:51;;;;;;;;;;;22.50;37.40;;;;;;3029793;19;4637;-34
2024/04/16 02:52:52;;;;;;;;;;;22.50;37.30;;;;;;3052865;19;4677;-33
2024/04/16 02:53:53;;;;;;;;;;;22.50;37.40;;;;;;3052660;19;4688;-32
2024/04/16 02:54:55;;;;;;;;;;;22.60;37.40;;;;;;3031484;19;4629;-32
2024/04/16 02:55:56;;;;;;;;;;;22.60;37.40;;;;;;3050149;19;4679;-32
2024/04/16 02:56:57;;;;;;;;;;;22.60;37.40;;;;;;3031661;19;4651;-31
2024/04/16 02:57:57;;;;;;;;;;;22.60;37.40;;;;;;3053018;19;4658;-33
2024/04/16 02:58:58;;;;;;;;;;;22.60;37.40;;;;;;3051596;19;4587;-34
2024/04/16 02:59:59;;;;;;;;;;;22.60;37.20;;;;;;3030278;19;4631;-33
2024/04/16 03:01:06;;;;;;;;;;;22.60;37.20;;;;;;3051721;19;4860;-30
2024/04/16 03:02:07;;;;;;;;;;;22.60;37.20;;;;;;3052593;19;4607;-32
2024/04/16 03:03:10;;;;;;;;;;;22.70;37.20;;;;;;3031970;19;4024;-30
2024/04/16 03:04:10;;;;;;;;;;;22.70;37.10;;;;;;3052552;19;4585;-33
2024/04/16 03:05:11;;;;;;;;;;;22.80;37.10;;;;;;3030093;19;4591;-34
2024/04/16 03:06:12;;;;;;;;;;;22.80;37.10;;;;;;3051632;19;4707;-34
2024/04/16 03:07:12;;;;;;;;;;;22.80;37.00;;;;;;3051241;19;4704;-32
2024/04/16 03:08:13;;;;;;;;;;;22.80;37.00;;;;;;3030929;19;4653;-31
2024/04/16 03:09:14;;;;;;;;;;;22.80;37.00;;;;;;3052562;19;4674;-34
2024/04/16 03:10:15;;;;;;;;;;;22.80;37.00;;;;;;3052296;19;4805;-34
2024/04/16 03:11:16;;;;;;;;;;;22.80;37.10;;;;;;3028786;19;4724;-28
2024/04/16 03:12:16;;;;;;;;;;;22.80;37.00;;;;;;3051309;19;4700;-29
2024/04/16 03:13:17;;;;;;;;;;;22.80;37.00;;;;;;3031563;19;4524;-31
2024/04/16 03:14:18;;;;;;;;;;;22.80;37.00;;;;;;3052193;19;4669;-31
2024/04/16 03:15:18;;;;;;;;;;;22.80;37.00;;;;;;3050906;19;4693;-30
2024/04/16 03:16:19;;;;;;;;;;;22.80;37.60;;;;;;3028497;19;4555;-33
2024/04/16 03:17:20;;;;;;;;;;;22.80;37.10;;;;;;3051955;19;4869;-32
2024/04/16 03:18:21;;;;;;;;;;;22.80;37.00;;;;;;3030428;19;4741;-30
2024/04/16 03:19:21;;;;;;;;;;;22.80;37.00;;;;;;3052548;19;4656;-30
2024/04/16 03:20:22;;;;;;;;;;;22.80;37.00;;;;;;3051344;19;4696;-32
2024/04/16 03:21:23;;;;;;;;;;;22.70;36.90;;;;;;3030164;19;4536;-33
2024/04/16 03:22:23;;;;;;;;;;;22.70;37.00;;;;;;3052251;19;4839;-33
2024/04/16 03:23:24;;;;;;;;;;;22.70;37.00;;;;;;3051966;19;4674;-33
2024/04/16 03:24:24;;;;;;;;;;;22.70;37.00;;;;;;3030231;19;4677;-32
2024/04/16 03:25:25;;;;;;;;;;;22.70;37.00;;;;;;3051899;19;4860;-24
2024/04/16 03:26:26;;;;;;;;;;;22.70;37.00;;;;;;3029843;19;4698;-24
2024/04/16 03:27:26;;;;;;;;;;;22.70;37.10;;;;;;3051234;19;4748;-24
2024/04/16 03:28:27;;;;;;;;;;;22.70;37.00;;;;;;3052795;19;4811;-24
2024/04/16 03:29:28;;;;;;;;;;;22.70;37.00;;;;;;3031106;19;4542;-24
2024/04/16 03:30:28;;;;;;;;;;;22.40;37.00;;;;;;3052434;19;4848;-25
2024/04/16 03:31:29;;;;;;;;;;;22.70;37.10;;;;;;3052297;19;4658;-25
2024/04/16 03:32:29;;;;;;;;;;;22.70;37.10;;;;;;3029820;19;4750;-24
2024/04/16 03:33:32;;;;;;;;;;;22.70;37.00;;;;;;3051534;19;4717;-23
2024/04/16 03:34:32;;;;;;;;;;;22.70;37.10;;;;;;3029825;19;4926;-24
2024/04/16 03:35:33;;;;;;;;;;;22.70;37.10;;;;;;3051985;19;4708;-24
2024/04/16 03:36:33;;;;;;;;;;;22.60;37.10;;;;;;3050865;19;4813;-24
2024/04/16 03:37:34;;;;;;;;;;;22.70;37.10;;;;;;3031178;19;4676;-24
2024/04/16 03:38:35;;;;;;;;;;;22.70;37.00;;;;;;3051150;19;4857;-23
2024/04/16 03:39:35;;;;;;;;;;;22.70;37.10;;;;;;3043287;19;4798;-23
2024/04/16 03:40:36;;;;;;;;;;;22.70;37.00;;;;;;3045971;19;4702;-24
2024/04/16 03:41:37;;;;;;;;;;;22.70;37.10;;;;;;3051398;19;4748;-24
2024/04/16 03:42:37;;;;;;;;;;;22.80;37.10;;;;;;3030523;19;4722;-23
2024/04/16 03:43:38;;;;;;;;;;;22.80;37.00;;;;;;3052245;19;4662;-24
2024/04/16 03:44:39;;;;;;;;;;;22.80;36.90;;;;;;3052800;19;4694;-23
2024/04/16 03:45:39;;;;;;;;;;;22.80;36.70;;;;;;3031070;19;4621;-26
2024/04/16 03:46:40;;;;;;;;;;;22.90;36.70;;;;;;3052854;19;4666;-25
2024/04/16 03:47:40;;;;;;;;;;;22.90;36.60;;;;;;3030471;19;4703;-25
2024/04/16 03:48:41;;;;;;;;;;;22.90;36.60;;;;;;3052675;19;4659;-24
2024/04/16 03:49:42;;;;;;;;;;;22.90;36.60;;;;;;3051676;19;4687;-24
2024/04/16 03:50:42;;;;;;;;;;;22.90;36.50;;;;;;3029128;19;4675;-24
2024/04/16 03:51:43;;;;;;;;;;;22.90;36.50;;;;;;3052247;19;4665;-23
2024/04/16 03:52:43;;;;;;;;;;;22.90;36.50;;;;;;3051707;19;4682;-26
2024/04/16 03:53:44;;;;;;;;;;;22.90;36.50;;;;;;3030256;19;4634;-23
2024/04/16 03:54:45;;;;;;;;;;;22.90;36.60;;;;;;3051589;19;4630;-25
2024/04/16 03:55:45;;;;;;;;;;;22.90;36.50;;;;;;3030075;19;4659;-27
2024/04/16 03:56:46;;;;;;;;;;;22.90;36.50;;;;;;3051617;19;4706;-23
2024/04/16 03:57:46;;;;;;;;;;;22.90;36.60;;;;;;3052387;19;4649;-24
2024/04/16 04:01:26;;;;;;;;;;;22.90;36.60;;;;;;2928456;19;2005568;-24
2024/04/16 04:02:27;;;;;;;;;;;22.80;36.60;;;;;;3051030;19;4715;-24
2024/04/16 04:03:28;;;;;;;;;;;22.80;36.50;;;;;;3051124;19;4745;-23
2024/04/16 04:04:29;;;;;;;;;;;22.80;36.60;;;;;;3030740;19;4519;-25
2024/04/16 04:05:30;;;;;;;;;;;22.80;36.60;;;;;;3052261;19;4654;-25
2024/04/16 04:06:31;;;;;;;;;;;22.80;36.60;;;;;;3030903;19;4837;-23
2024/04/16 04:07:31;;;;;;;;;;;22.80;36.70;;;;;;3052284;19;4716;-25
2024/04/16 04:08:32;;;;;;;;;;;22.80;36.60;;;;;;3051168;19;4700;-25
2024/04/16 04:09:32;;;;;;;;;;;22.80;36.70;;;;;;3031238;19;4538;-24
2024/04/16 04:10:33;;;;;;;;;;;22.70;36.60;;;;;;3051539;19;4715;-23
2024/04/16 04:11:34;;;;;;;;;;;22.80;36.60;;;;;;3052693;19;4963;-23
2024/04/16 04:12:35;;;;;;;;;;;22.70;36.60;;;;;;3028997;19;4809;-24
2024/04/16 04:13:36;;;;;;;;;;;22.70;36.70;;;;;;3052222;19;4636;-24
2024/04/16 04:14:37;;;;;;;;;;;22.80;36.80;;;;;;3029152;19;4773;-23
2024/04/16 04:15:37;;;;;;;;;;;22.70;36.70;;;;;;3051130;19;4711;-24
2024/04/16 04:16:38;;;;;;;;;;;22.70;36.70;;;;;;3051043;19;4701;-23
2024/04/16 04:17:38;;;;;;;;;;;22.60;36.60;;;;;;3030752;19;4538;-24
2024/04/16 04:18:39;;;;;;;;;;;22.70;36.80;;;;;;3051495;19;4675;-24
2024/04/16 04:19:40;;;;;;;;;;;22.60;36.70;;;;;;3031055;19;4703;-27
2024/04/16 04:20:41;;;;;;;;;;;22.60;36.70;;;;;;3050847;19;4630;-23
2024/04/16 04:21:42;;;;;;;;;;;22.60;36.70;;;;;;3052515;19;4667;-23
2024/04/16 04:22:42;;;;;;;;;;;22.60;36.80;;;;;;3030684;19;4706;-23
2024/04/16 04:23:43;;;;;;;;;;;22.60;36.80;;;;;;3053395;19;4678;-24
2024/04/16 04:24:44;;;;;;;;;;;22.60;36.80;;;;;;3055278;19;4938;-23
2024/04/16 04:25:44;;;;;;;;;;;22.60;36.80;;;;;;3031725;19;4599;-24
2024/04/16 04:26:45;;;;;;;;;;;22.60;36.90;;;;;;3054741;19;4698;-24
2024/04/16 04:27:46;;;;;;;;;;;22.50;36.90;;;;;;3032925;19;4750;-23
2024/04/16 04:28:47;;;;;;;;;;;22.50;36.90;;;;;;3054069;19;4678;-25
2024/04/16 04:29:47;;;;;;;;;;;22.50;36.90;;;;;;3055026;19;4902;-25
2024/04/16 04:30:49;;;;;;;;;;;22.50;36.90;;;;;;3032684;19;4692;-23
2024/04/16 04:31:50;;;;;;;;;;;22.50;36.90;;;;;;3054793;19;4675;-24
2024/04/16 04:32:51;;;;;;;;;;;22.50;36.90;;;;;;3054933;19;4636;-24
2024/04/16 04:33:51;;;;;;;;;;;22.50;36.90;;;;;;3032210;19;4595;-27
2024/04/16 04:34:52;;;;;;;;;;;22.50;36.90;;;;;;3054386;19;4719;-25
2024/04/16 04:35:53;;;;;;;;;;;22.50;37.00;;;;;;3032831;19;4716;-25
2024/04/16 04:36:53;;;;;;;;;;;22.60;37.10;;;;;;3054843;19;4649;-24
2024/04/16 04:37:54;;;;;;;;;;;22.50;37.00;;;;;;3054287;19;4637;-25
2024/04/16 04:38:55;;;;;;;;;;;22.60;36.90;;;;;;3032593;19;4696;-26
2024/04/16 04:39:55;;;;;;;;;;;22.60;36.80;;;;;;3052248;19;4634;-23
2024/04/16 04:40:56;;;;;;;;;;;22.60;36.80;;;;;;3040320;19;4717;-25
2024/04/16 04:41:56;;;;;;;;;;;22.70;36.80;;;;;;3052046;19;4726;-26
2024/04/16 04:42:59;;;;;;;;;;;22.70;36.80;;;;;;3051471;19;5147;-25
2024/04/16 04:44:00;;;;;;;;;;;22.70;36.80;;;;;;3031900;19;4677;-26
2024/04/16 04:45:00;;;;;;;;;;;22.70;36.70;;;;;;3053708;19;4581;-26
2024/04/16 04:46:01;;;;;;;;;;;24.30;37.50;;;;;;3053374;19;4796;-24
2024/04/16 04:47:02;;;;;;;;;;;22.70;36.70;;;;;;3032949;19;4649;-24
2024/04/16 04:48:04;;;;;;;;;;;22.80;36.70;;;;;;3054176;19;4715;-24
2024/04/16 04:49:06;;;;;;;;;;;22.80;36.70;;;;;;3031500;19;4704;-25
2024/04/16 04:50:06;;;;;;;;;;;22.80;36.70;;;;;;3054377;19;4570;-23
2024/04/16 04:51:07;;;;;;;;;;;22.80;36.70;;;;;;3052475;19;4633;-26
2024/04/16 04:52:08;;;;;;;;;;;22.80;36.70;;;;;;3031563;19;4794;-23
2024/04/16 04:53:08;;;;;;;;;;;22.80;36.60;;;;;;3051232;19;4682;-23
2024/04/16 04:54:09;;;;;;;;;;;22.80;36.60;;;;;;3053675;19;4688;-23
2024/04/16 04:55:10;;;;;;;;;;;22.80;36.60;;;;;;3028938;19;4750;-25
2024/04/16 04:56:11;;;;;;;;;;;22.80;36.60;;;;;;3050747;19;4842;-24
2024/04/16 04:57:11;;;;;;;;;;;22.80;36.60;;;;;;3031116;19;4578;-24
2024/04/16 04:58:12;;;;;;;;;;;22.80;36.60;;;;;;3052481;19;1183;-23
2024/04/16 04:59:13;;;;;;;;;;;22.80;36.60;;;;;;3051805;19;4783;-25
2024/04/16 05:00:14;;;;;;;;;;;22.80;36.50;;;;;;3031915;19;4655;-23
2024/04/16 05:01:14;;;;;;;;;;;22.90;36.40;;;;;;3051588;19;4734;-24
2024/04/16 05:02:15;;;;;;;;;;;22.90;36.30;;;;;;3048377;19;4655;-23
2024/04/16 05:03:16;;;;;;;;;;;22.90;36.20;;;;;;3040937;19;4762;-23
2024/04/16 05:04:16;;;;;;;;;;;23.00;36.10;;;;;;3052968;19;4658;-23
2024/04/16 05:05:17;;;;;;;;;;;23.00;36.60;;;;;;3032743;19;4562;-23
2024/04/16 05:06:17;;;;;;;;;;;23.00;36.00;;;;;;3051986;19;4711;-23
2024/04/16 05:07:18;;;;;;;;;;;23.00;35.90;;;;;;3051961;19;4715;-23
2024/04/16 05:08:19;;;;;;;;;;;23.00;36.00;;;;;;3031664;19;4583;-23
2024/04/16 05:09:19;;;;;;;;;;;23.00;35.90;;;;;;3052997;19;4717;-24
2024/04/16 05:10:20;;;;;;;;;;;23.00;35.80;;;;;;3029948;19;4697;-27
2024/04/16 05:11:21;;;;;;;;;;;23.00;35.80;;;;;;3053402;19;4864;-24
2024/04/16 05:12:22;;;;;;;;;;;23.00;35.80;;;;;;3050063;19;4656;-23
2024/04/16 05:13:22;;;;;;;;;;;23.00;35.90;;;;;;3031674;19;4579;-23
2024/04/16 05:14:25;;;;;;;;;;;23.00;35.80;;;;;;3051981;19;4681;-23
2024/04/16 05:15:25;;;;;;;;;;;23.00;35.80;;;;;;3051217;19;4849;-23
2024/04/16 05:16:26;;;;;;;;;;;23.00;35.90;;;;;;3031404;19;4735;-23
2024/04/16 05:17:27;;;;;;;;;;;23.00;35.90;;;;;;3052322;19;4654;-23
2024/04/16 05:18:27;;;;;;;;;;;23.00;36.00;;;;;;3032561;19;4696;-23
2024/04/16 05:19:28;;;;;;;;;;;23.00;36.10;;;;;;3052219;19;4693;-23
2024/04/16 05:20:30;;;;;;;;;;;23.00;36.00;;;;;;3053306;19;4731;-25
2024/04/16 05:21:31;;;;;;;;;;;23.00;36.00;;;;;;3030834;19;4523;-24
2024/04/16 05:22:32;;;;;;;;;;;23.00;36.10;;;;;;3053830;19;4753;-23
2024/04/16 05:23:32;;;;;;;;;;;23.00;36.10;;;;;;3054694;19;4709;-23
2024/04/16 05:24:33;;;;;;;;;;;23.00;36.10;;;;;;3032149;19;4585;-23
2024/04/16 05:25:34;;;;;;;;;;;23.00;36.10;;;;;;3054183;19;5296;-23
2024/04/16 05:26:35;;;;;;;;;;;23.00;36.10;;;;;;3032557;19;4694;-23
2024/04/16 05:27:35;;;;;;;;;;;23.00;36.20;;;;;;3052882;19;4685;-23
2024/04/16 05:28:36;;;;;;;;;;;23.00;36.10;;;;;;3053333;19;4752;-25
2024/04/16 05:29:36;;;;;;;;;;;23.00;36.10;;;;;;3033286;19;4884;-24
2024/04/16 05:30:39;;;;;;;;;;;23.00;36.30;;;;;;3051310;19;4685;-25
2024/04/16 05:31:39;;;;;;;;;;;22.90;36.30;;;;;;3031210;19;4668;-23
2024/04/16 05:32:40;;;;;;;;;;;22.90;36.30;;;;;;3053843;19;4725;-24
2024/04/16 05:33:40;;;;;;;;;;;22.90;36.40;;;;;;3052522;19;4669;-23
2024/04/16 05:34:41;;;;;;;;;;;22.90;36.40;;;;;;3030622;19;4750;-24
2024/04/16 05:35:42;;;;;;;;;;;22.80;36.40;;;;;;3052580;19;4644;-26
2024/04/16 05:36:42;;;;;;;;;;;22.80;36.50;;;;;;3053231;19;4840;-23
2024/04/16 05:37:43;;;;;;;;;;;22.80;36.60;;;;;;3032276;19;4601;-23
2024/04/16 05:38:44;;;;;;;;;;;22.80;36.70;;;;;;3052645;19;4677;-24
2024/04/16 05:39:44;;;;;;;;;;;22.80;36.80;;;;;;3031605;19;4698;-23
2024/04/16 05:40:45;;;;;;;;;;;22.80;36.70;;;;;;3051377;19;4680;-25
2024/04/16 05:41:45;;;;;;;;;;;22.80;36.70;;;;;;3051627;19;4651;-24
2024/04/16 05:42:46;;;;;;;;;;;22.90;36.70;;;;;;3030087;19;4901;-24
2024/04/16 05:43:47;;;;;;;;;;;22.90;36.60;;;;;;3052335;19;4627;-23
2024/04/16 05:44:48;;;;;;;;;;;22.90;36.50;;;;;;3050544;19;4721;-23
2024/04/16 05:45:48;;;;;;;;;;;22.90;36.60;;;;;;3030737;19;4540;-23
2024/04/16 05:46:49;;;;;;;;;;;22.90;36.50;;;;;;3052853;19;4755;-24
2024/04/16 05:47:49;;;;;;;;;;;22.90;36.60;;;;;;3032651;19;4645;-24
2024/04/16 05:48:50;;;;;;;;;;;22.90;36.50;;;;;;3052681;19;4670;-23
2024/04/16 05:49:51;;;;;;;;;;;23.00;36.60;;;;;;3051357;19;4706;-23
2024/04/16 05:50:51;;;;;;;;;;;23.00;36.60;;;;;;3028544;19;4742;-23
2024/04/16 05:51:54;;;;;;;;;;;22.90;36.50;;;;;;3051844;19;4720;-25
2024/04/16 05:52:54;;;;;;;;;;;22.90;36.60;;;;;;3052395;19;4680;-28
2024/04/16 05:53:55;;;;;;;;;;;23.00;36.70;;;;;;3029803;19;20748;-24
2024/04/16 05:54:56;;;;;;;;;;;22.90;36.50;;;;;;3052981;19;4642;-23
2024/04/16 05:55:56;;;;;;;;;;;22.90;36.60;;;;;;3029585;19;4669;-23
2024/04/16 05:56:58;;;;;;;;;;;22.90;36.60;;;;;;3051826;19;4723;-23
2024/04/16 05:58:00;;;;;;;;;;;22.90;36.60;;;;;;3052980;19;4673;-23
2024/04/16 05:59:01;;;;;;;;;;;22.90;36.70;;;;;;3028923;19;4660;-25
2024/04/16 06:00:01;;;;;;;;;;;22.80;36.60;;;;;;3053075;19;4781;-25
2024/04/16 06:01:05;;;;;;;;;;;22.90;36.70;;;;;;3029661;19;4600;-24